Time;durP1;ratioP1;P1;durP2;ratioP2;P2;SDS_P1;SDS_P2;PMS_P1;PMS_P2;Temp;Humidity;BMP_temperature;BMP_pressure;BME280_temperature;BME280_humidity;BME280_pressure;Samples;Min_cycle;Max_cycle;Signal;HPM_P1;HPM_P2
2022/11/08 03:11:24;;;;;;;8.80;7.90;;;;;;;1.87;100.00;99614.19;6053805;23;20236;-81
2022/11/08 03:13:53;;;;;;;10.83;9.27;;;;;;;1.78;100.00;99605.44;6036099;23;20217;-81
2022/11/08 03:16:32;;;;;;;9.27;8.20;;;;;;;1.76;100.00;99602.16;6041447;23;20173;-83
2022/11/08 03:19:18;;;;;;;10.57;8.23;;;;;;;1.74;100.00;99606.75;6019295;23;20173;-83
2022/11/08 03:22:17;;;;;;;9.20;7.73;;;;;;;1.72;100.00;99610.56;6039399;23;20531;-81
2022/11/08 03:24:44;;;;;;;8.93;7.80;;;;;;;1.68;100.00;99612.69;6045374;23;20244;-80
2022/11/08 03:27:12;;;;;;;8.97;8.07;;;;;;;1.68;100.00;99617.97;6046778;23;20162;-80
2022/11/08 03:29:40;;;;;;;8.40;7.20;;;;;;;1.68;100.00;99619.81;6046376;23;20194;-81
2022/11/08 03:32:06;;;;;;;7.90;7.10;;;;;;;1.57;100.00;99607.75;6046695;23;20503;-80
2022/11/08 03:34:45;;;;;;;9.00;7.30;;;;;;;1.63;100.00;99607.06;6005354;23;20170;-82
2022/11/08 03:37:22;;;;;;;7.57;6.83;;;;;;;1.56;100.00;99595.50;6065000;23;20201;-82
2022/11/08 03:50:45;;;;;;;8.80;6.87;;;;;;;1.73;100.00;99607.75;6209675;22;1358001;-80
2022/11/08 03:53:12;;;;;;;12.93;8.50;;;;;;;1.81;100.00;99608.75;6254827;22;20235;-79
2022/11/08 03:55:40;;;;;;;25.30;10.83;;;;;;;1.91;100.00;99606.78;6254659;22;20170;-79
2022/11/08 03:58:06;;;;;;;28.47;12.03;;;;;;;1.95;100.00;99616.84;6254397;22;20172;-80
2022/11/08 04:00:33;;;;;;;27.83;12.40;;;;;;;1.95;100.00;99610.75;6254427;23;20167;-80
2022/11/08 04:03:01;;;;;;;16.83;11.23;;;;;;;2.01;100.00;99618.81;6253182;23;20171;-79
2022/11/08 04:05:31;;;;;;;13.93;10.90;;;;;;;2.02;100.00;99623.13;6254719;22;20167;-80
2022/11/08 04:07:59;;;;;;;15.17;11.30;;;;;;;2.05;100.00;99628.06;6254714;22;20191;-79
2022/11/08 04:10:26;;;;;;;25.87;11.87;;;;;;;2.09;100.00;99636.53;6254527;22;20184;-81
2022/11/08 04:15:37;;;;;;;16.57;11.63;;;;;;;2.27;100.00;99631.06;6254638;23;20152;-80
2022/11/08 05:01:38;;;;;;;20.87;13.90;;;;;;;2.93;100.00;99604.28;6240381;22;20209;-82
2022/11/08 05:04:05;;;;;;;28.27;14.40;;;;;;;2.91;100.00;99601.81;6222790;23;20169;-81
2022/11/08 05:06:32;;;;;;;29.13;13.93;;;;;;;2.94;100.00;99598.81;6222792;23;20161;-83
2022/11/08 05:08:59;;;;;;;15.53;13.60;;;;;;;2.79;100.00;99610.28;6221243;23;20649;-81
2022/11/08 05:11:27;;;;;;;15.60;13.13;;;;;;;2.79;100.00;99612.94;6220449;23;20162;-82
2022/11/08 05:13:54;;;;;;;20.33;14.17;;;;;;;2.84;100.00;99611.44;6220321;23;20658;-80
2022/11/08 05:16:24;;;;;;;21.20;13.90;;;;;;;2.88;100.00;99612.75;6221995;23;20241;-80
2022/11/08 05:18:51;;;;;;;17.80;13.53;;;;;;;2.85;100.00;99609.59;6220808;23;20264;-82
2022/11/08 05:24:08;;;;;;;26.03;12.30;;;;;;;2.88;100.00;99603.97;6221150;23;20209;-82
2022/11/08 05:26:38;;;;;;;139.23;17.57;;;;;;;2.92;100.00;99611.41;6223194;23;20162;-81
2022/11/08 05:29:05;;;;;;;28.87;13.00;;;;;;;2.87;100.00;99611.09;6220730;23;20176;-82
2022/11/08 05:31:31;;;;;;;14.83;13.27;;;;;;;2.88;100.00;99612.75;6222941;23;20213;-81
2022/11/08 05:34:01;;;;;;;21.17;14.00;;;;;;;2.92;100.00;99619.34;6195823;23;20158;-81
2022/11/08 05:36:28;;;;;;;21.63;17.03;;;;;;;2.97;100.00;99606.44;6225943;23;20170;-82
2022/11/08 05:39:37;;;;;;;22.23;16.80;;;;;;;3.03;100.00;99612.84;6223260;23;20184;-83
2022/11/08 05:42:33;;;;;;;20.60;14.57;;;;;;;3.02;100.00;99606.75;6223928;23;20153;-84
2022/11/08 06:16:21;;;;;;;16.93;14.80;;;;;;;3.39;100.00;99634.38;6228071;22;20205;-81
2022/11/08 06:18:48;;;;;;;31.57;15.10;;;;;;;3.47;100.00;99635.16;6218649;23;20216;-80
2022/11/08 06:21:17;;;;;;;19.40;14.60;;;;;;;3.51;100.00;99635.59;6220612;23;20165;-81
2022/11/08 06:23:44;;;;;;;18.53;14.33;;;;;;;3.59;100.00;99637.41;6218509;23;20176;-80
2022/11/08 06:26:11;;;;;;;27.67;14.43;;;;;;;3.62;100.00;99637.06;6219427;23;20603;-80
2022/11/08 06:28:37;;;;;;;25.53;15.37;;;;;;;3.65;100.00;99642.00;6219905;23;20618;-80
2022/11/08 06:31:04;;;;;;;20.53;15.50;;;;;;;3.73;100.00;99641.97;6219921;23;20162;-80
2022/11/08 06:33:31;;;;;;;18.53;15.40;;;;;;;3.82;100.00;99643.56;6221419;23;20165;-80
2022/11/08 06:35:58;;;;;;;25.53;15.70;;;;;;;3.82;100.00;99643.56;6220554;23;20161;-80
2022/11/08 06:38:24;;;;;;;18.87;14.70;;;;;;;3.87;100.00;99651.81;6217739;23;20181;-81
2022/11/08 06:40:51;;;;;;;66.27;16.57;;;;;;;4.00;100.00;99660.00;6220659;23;20221;-80
2022/11/08 06:43:18;;;;;;;29.63;15.73;;;;;;;4.02;100.00;99649.19;6221428;23;20181;-81
2022/11/08 06:45:46;;;;;;;32.53;15.33;;;;;;;4.04;100.00;99655.16;6219192;23;20162;-80
2022/11/08 06:48:12;;;;;;;40.10;15.97;;;;;;;4.08;100.00;99644.00;6193665;23;20169;-80
2022/11/08 06:50:40;;;;;;;47.17;15.03;;;;;;;4.19;100.00;99653.38;6221522;23;20219;-81
2022/11/08 06:53:09;;;;;;;49.47;15.90;;;;;;;4.10;100.00;99654.47;6218819;23;20673;-80
2022/11/08 06:55:36;;;;;;;57.70;16.40;;;;;;;4.12;100.00;99655.09;6218969;23;20158;-80
2022/11/08 06:58:03;;;;;;;33.40;15.73;;;;;;;4.28;100.00;99655.78;6219982;23;20168;-81
2022/11/08 07:00:29;;;;;;;40.93;16.40;;;;;;;4.35;100.00;99653.25;6193062;23;20189;-80
2022/11/08 07:02:58;;;;;;;42.17;23.10;;;;;;;4.39;100.00;99655.34;6194065;23;20184;-80
2022/11/08 07:05:26;;;;;;;28.90;21.27;;;;;;;4.48;100.00;99653.44;6219864;23;20653;-80
2022/11/08 07:07:53;;;;;;;34.87;16.77;;;;;;;4.57;100.00;99654.22;6220578;23;20158;-80
2022/11/08 07:10:24;;;;;;;24.27;15.97;;;;;;;4.68;100.00;99653.75;6220248;23;20215;-80
2022/11/08 07:13:19;;;;;;;22.57;14.07;;;;;;;4.73;100.00;99656.69;6220402;23;20153;-80
2022/11/08 07:15:47;;;;;;;51.77;12.67;;;;;;;4.83;100.00;99662.56;6238004;23;20191;-80
2022/11/08 08:01:01;;;;;;;24.33;11.73;;;;;;;5.74;100.00;99654.97;6256926;22;20232;-83
2022/11/08 08:03:36;;;;;;;16.40;11.80;;;;;;;5.79;100.00;99641.09;6213024;23;20208;-82
2022/11/08 08:06:31;;;;;;;21.60;12.37;;;;;;;5.85;100.00;99644.84;6237913;23;20179;-80
2022/11/08 08:08:57;;;;;;;15.67;12.73;;;;;;;5.88;100.00;99637.34;6221763;23;20162;-81
2022/11/08 08:11:24;;;;;;;15.70;12.80;;;;;;;6.08;100.00;99653.50;6220785;23;20170;-80
2022/11/08 08:13:58;;;;;;;14.37;12.50;;;;;;;6.19;100.00;99653.00;6220133;23;20154;-81
2022/11/08 08:16:24;;;;;;;15.47;12.23;;;;;;;6.26;100.00;99653.03;6219807;23;20164;-81
2022/11/08 08:18:51;;;;;;;13.20;11.87;;;;;;;6.28;100.00;99659.00;6220884;23;20185;-81
2022/11/08 08:21:22;;;;;;;13.60;12.00;;;;;;;6.35;100.00;99652.72;6221746;23;20150;-81
2022/11/08 08:23:49;;;;;;;13.53;12.07;;;;;;;6.36;100.00;99651.72;6220878;23;20218;-81
2022/11/08 08:26:15;;;;;;;13.00;11.67;;;;;;;6.42;100.00;99666.09;6221658;23;20154;-81
2022/11/08 08:28:42;;;;;;;15.50;11.83;;;;;;;6.39;100.00;99658.50;6221892;23;20212;-81
2022/11/08 08:31:09;;;;;;;14.20;11.80;;;;;;;6.44;100.00;99650.78;6220483;23;20221;-81
2022/11/08 08:33:36;;;;;;;13.87;12.47;;;;;;;6.55;100.00;99651.06;6221300;23;20165;-81
2022/11/08 08:36:04;;;;;;;16.17;12.30;;;;;;;6.57;100.00;99646.38;6222181;23;20170;-81
2022/11/08 08:38:31;;;;;;;14.70;12.60;;;;;;;6.58;100.00;99645.34;6224140;23;20249;-81
2022/11/08 08:40:59;;;;;;;16.93;12.40;;;;;;;6.60;100.00;99639.81;6225055;23;20196;-83
2022/11/08 08:43:31;;;;;;;19.47;11.40;;;;;;;6.52;100.00;99635.47;6225660;23;20177;-82
2022/11/08 08:45:59;;;;;;;16.90;13.50;;;;;;;6.50;100.00;99629.50;6227486;23;20150;-82
2022/11/08 08:48:29;;;;;;;27.50;12.67;;;;;;;6.46;100.00;99633.56;6190379;23;20516;-83
2022/11/08 08:51:20;;;;;;;18.33;13.73;;;;;;;6.48;100.00;99636.06;6218244;23;20150;-82
2022/11/08 08:53:59;;;;;;;24.37;12.93;;;;;;;6.62;100.00;99637.81;6215303;23;20175;-83
2022/11/08 08:56:35;;;;;;;36.57;20.23;;;;;;;6.53;100.00;99634.44;6240105;23;20165;-82
2022/11/08 08:59:09;;;;;;;44.47;16.70;;;;;;;6.41;100.00;99641.31;6241066;23;20177;-83
2022/11/08 09:01:58;;;;;;;57.43;14.47;;;;;;;6.36;100.00;99624.28;6216808;23;20654;-82
2022/11/08 09:04:30;;;;;;;45.30;14.03;;;;;;;6.47;100.00;99623.75;6239630;23;20150;-83
2022/11/08 09:07:02;;;;;;;17.73;13.57;;;;;;;6.53;100.00;99638.97;6216485;23;20188;-82
2022/11/08 09:09:33;;;;;;;54.23;14.23;;;;;;;6.41;100.00;99646.63;6214300;23;20177;-83
2022/11/08 09:12:04;;;;;;;21.63;13.80;;;;;;;6.32;100.00;99644.31;6238211;23;20169;-83
2022/11/08 09:14:39;;;;;;;32.73;13.97;;;;;;;6.48;100.00;99642.22;6239436;23;20158;-83
2022/11/08 09:17:16;;;;;;;28.43;13.77;;;;;;;6.54;100.00;99649.41;6217835;23;20184;-83
2022/11/08 09:19:47;;;;;;;32.70;14.43;;;;;;;6.51;100.00;99639.16;6212743;23;20185;-83
2022/11/08 09:22:56;;;;;;;29.20;13.40;;;;;;;6.64;100.00;99649.06;6137675;23;20188;-84
2022/11/08 09:30:41;;;;;;;23.77;14.30;;;;;;;6.74;100.00;99638.06;6153946;23;20211;-83
2022/11/08 12:47:39;;;;;;;18.90;16.43;;;;;;;10.08;100.00;99513.34;6254653;22;20220;-82
2022/11/08 12:50:26;;;;;;;20.70;16.63;;;;;;;9.86;100.00;99509.44;6204691;23;20253;-82
2022/11/08 12:53:12;;;;;;;20.17;16.90;;;;;;;9.80;100.00;99504.97;6202045;23;20191;-81
2022/11/08 12:55:40;;;;;;;19.43;16.63;;;;;;;9.78;100.00;99502.50;6229532;23;20212;-81
2022/11/08 12:58:21;;;;;;;21.37;16.40;;;;;;;9.78;100.00;99507.84;6230643;23;20183;-81
2022/11/08 13:00:51;;;;;;;21.43;17.90;;;;;;;9.62;100.00;99503.00;6229841;23;20190;-82
2022/11/08 13:03:27;;;;;;;19.83;16.50;;;;;;;9.58;100.00;99501.81;6230277;23;20169;-81
2022/11/08 13:06:23;;;;;;;20.93;16.47;;;;;;;9.52;100.00;99498.13;6230612;23;20169;-82
2022/11/08 13:09:12;;;;;;;20.67;17.30;;;;;;;9.50;100.00;99505.56;6230608;23;20170;-81
2022/11/08 13:12:12;;;;;;;19.73;16.23;;;;;;;9.38;100.00;99501.13;6232515;23;20154;-82
2022/11/08 13:14:39;;;;;;;19.63;17.00;;;;;;;9.35;100.00;99486.34;6231910;23;20226;-82
2022/11/08 13:17:17;;;;;;;20.23;16.27;;;;;;;9.37;100.00;99503.00;6232331;23;20170;-81
2022/11/08 13:19:51;;;;;;;23.53;17.73;;;;;;;9.34;100.00;99508.75;6232209;23;20208;-82
2022/11/08 13:22:27;;;;;;;20.67;17.03;;;;;;;9.17;100.00;99495.06;6230263;23;20153;-81
2022/11/08 13:24:59;;;;;;;21.77;18.17;;;;;;;9.02;100.00;99493.69;6230465;23;20192;-81
2022/11/08 13:27:31;;;;;;;20.33;17.27;;;;;;;8.89;100.00;99499.94;6180041;23;20221;-82
2022/11/08 13:30:02;;;;;;;20.47;17.40;;;;;;;8.79;100.00;99502.22;6230546;23;20702;-82
2022/11/08 13:32:41;;;;;;;20.50;17.47;;;;;;;8.84;100.00;99505.91;6232443;23;20150;-82
2022/11/08 13:35:37;;;;;;;21.93;17.87;;;;;;;8.78;100.00;99496.06;6233648;23;20214;-82
2022/11/08 13:38:10;;;;;;;23.30;18.57;;;;;;;8.64;100.00;99502.47;6236517;23;20217;-82
2022/11/08 13:40:46;;;;;;;21.43;17.87;;;;;;;8.65;100.00;99496.09;6232563;23;20204;-82
2022/11/08 13:43:22;;;;;;;20.03;16.97;;;;;;;8.71;100.00;99495.28;6187704;23;20172;-82
2022/11/08 13:45:50;;;;;;;22.10;18.00;;;;;;;8.64;100.00;99490.97;6232540;23;20619;-82
2022/11/08 13:48:27;;;;;;;21.80;17.97;;;;;;;8.73;100.00;99500.38;6183332;23;20192;-82
2022/11/08 13:51:21;;;;;;;23.73;18.10;;;;;;;8.83;100.00;99504.25;6234397;23;20200;-82
2022/11/08 13:53:53;;;;;;;24.87;19.07;;;;;;;8.81;100.00;99492.16;6181230;23;20176;-82
2022/11/08 13:56:44;;;;;;;22.97;18.83;;;;;;;8.63;100.00;99495.47;6231261;23;20197;-82
2022/11/08 13:59:29;;;;;;;22.20;19.07;;;;;;;8.81;100.00;99492.97;6206139;23;20530;-82
2022/11/08 14:02:09;;;;;;;25.20;19.53;;;;;;;8.80;100.00;99490.50;6235261;23;20161;-82
2022/11/08 14:04:39;;;;;;;24.63;19.33;;;;;;;8.71;100.00;99481.09;6209029;23;20154;-82
2022/11/08 14:07:16;;;;;;;22.67;19.30;;;;;;;8.69;100.00;99485.81;6231464;23;20158;-82
2022/11/08 14:10:13;;;;;;;23.20;18.97;;;;;;;8.52;100.00;99480.13;6231275;23;20173;-82
2022/11/08 14:13:25;;;;;;;27.97;22.63;;;;;;;8.54;100.00;99483.38;6234021;23;20153;-81
2022/11/08 14:15:58;;;;;;;35.23;26.40;;;;;;;8.57;100.00;99472.31;6234350;23;20196;-82
2022/11/08 14:18:29;;;;;;;28.57;23.07;;;;;;;8.48;100.00;99476.25;6234032;23;20173;-82
2022/11/08 14:20:56;;;;;;;22.53;19.23;;;;;;;8.42;100.00;99474.41;6235055;23;20170;-82
2022/11/08 14:23:31;;;;;;;23.50;18.53;;;;;;;8.45;100.00;99471.31;6207440;23;20165;-82
2022/11/08 14:26:08;;;;;;;24.27;19.37;;;;;;;8.46;100.00;99472.13;6234598;23;20156;-82
2022/11/08 14:28:41;;;;;;;20.40;17.53;;;;;;;8.42;100.00;99466.38;6207809;23;20165;-82
2022/11/08 14:31:28;;;;;;;19.53;17.17;;;;;;;8.44;100.00;99464.34;6231865;23;20164;-82
2022/11/08 14:33:57;;;;;;;20.50;17.40;;;;;;;8.39;100.00;99454.28;6235418;23;20189;-82
2022/11/08 14:36:27;;;;;;;21.57;18.00;;;;;;;8.32;100.00;99452.66;6237711;23;20217;-82
2022/11/08 14:39:15;;;;;;;25.27;18.67;;;;;;;8.33;100.00;99454.31;6210696;23;20178;-82
2022/11/08 14:41:47;;;;;;;21.90;17.93;;;;;;;8.25;100.00;99454.50;6235226;23;20173;-82
2022/11/08 14:44:15;;;;;;;24.07;19.07;;;;;;;8.24;100.00;99460.84;6208041;23;20166;-82
2022/11/08 14:46:42;;;;;;;23.73;19.07;;;;;;;8.12;100.00;99457.19;6237862;23;20180;-82
2022/11/08 14:49:12;;;;;;;23.03;18.97;;;;;;;8.07;100.00;99457.00;6237490;23;20187;-82
2022/11/08 14:51:39;;;;;;;23.90;18.87;;;;;;;8.03;100.00;99451.22;6237411;23;20176;-82
2022/11/08 14:54:22;;;;;;;22.07;18.80;;;;;;;8.01;100.00;99447.16;6212986;23;20180;-82
2022/11/08 14:56:49;;;;;;;23.40;19.23;;;;;;;8.02;100.00;99456.81;6265233;23;20164;-82
2022/11/08 14:59:16;;;;;;;21.97;18.37;;;;;;;7.92;100.00;99450.03;6238342;23;20188;-82
2022/11/08 15:01:46;;;;;;;24.83;19.73;;;;;;;7.78;100.00;99442.25;6212281;23;20185;-82
2022/11/08 15:04:19;;;;;;;24.27;19.63;;;;;;;7.74;100.00;99451.69;6212934;23;20188;-82
2022/11/08 15:06:49;;;;;;;24.73;20.13;;;;;;;7.74;100.00;99451.69;6212775;23;20161;-82
2022/11/08 15:09:30;;;;;;;25.40;20.93;;;;;;;7.75;100.00;99453.31;6212082;23;20200;-82
2022/11/08 15:12:06;;;;;;;25.77;21.17;;;;;;;7.73;100.00;99463.38;6209342;23;20172;-82
2022/11/08 15:14:35;;;;;;;26.37;20.93;;;;;;;7.73;100.00;99458.03;6235566;23;20176;-82
2022/11/08 15:17:04;;;;;;;25.00;19.77;;;;;;;7.69;100.00;99457.63;6237908;23;20188;-82
2022/11/08 15:19:33;;;;;;;23.33;19.43;;;;;;;7.73;100.00;99464.19;6263885;23;20201;-82
2022/11/08 15:22:26;;;;;;;28.60;22.70;;;;;;;7.62;100.00;99455.97;6239366;23;20220;-82
2022/11/08 15:25:16;;;;;;;31.57;25.87;;;;;;;7.60;100.00;99460.72;6237470;23;20489;-82
2022/11/08 15:27:50;;;;;;;31.67;27.40;;;;;;;7.50;100.00;99456.59;6263841;23;20180;-82
2022/11/08 15:30:53;;;;;;;29.07;24.17;;;;;;;7.47;100.00;99461.50;6264749;23;20145;-82
2022/11/08 15:33:22;;;;;;;27.47;20.93;;;;;;;7.38;100.00;99458.22;6259044;23;20180;-82
2022/11/08 15:35:50;;;;;;;25.40;20.03;;;;;;;7.43;100.00;99469.09;6267047;23;20141;-82
2022/11/08 15:38:38;;;;;;;26.90;20.83;;;;;;;7.40;100.00;99458.03;6268086;23;20195;-82
2022/11/08 15:41:43;;;;;;;27.03;20.90;;;;;;;7.35;100.00;99458.63;6218622;23;20169;-82
2022/11/08 15:44:20;;;;;;;25.60;19.40;;;;;;;7.37;100.00;99450.44;6215385;23;20224;-82
2022/11/08 15:46:50;;;;;;;25.37;20.23;;;;;;;7.32;100.00;99451.06;6239376;23;20907;-82
2022/11/08 15:49:21;;;;;;;28.07;20.73;;;;;;;7.31;100.00;99449.41;6263606;23;20575;-82
2022/11/08 15:51:50;;;;;;;25.73;21.20;;;;;;;7.30;100.00;99444.25;6236624;23;20161;-82
2022/11/08 15:54:17;;;;;;;27.20;21.50;;;;;;;7.25;100.00;99436.06;6262480;23;20617;-82
2022/11/08 15:56:45;;;;;;;29.67;22.27;;;;;;;7.26;100.00;99435.03;6211809;23;20165;-82
2022/11/08 15:59:37;;;;;;;27.87;21.90;;;;;;;7.24;100.00;99448.56;6237250;23;20187;-82
2022/11/08 16:02:11;;;;;;;30.13;21.97;;;;;;;7.22;100.00;99439.97;6237404;23;20165;-82
2022/11/08 16:04:39;;;;;;;31.97;23.13;;;;;;;7.13;100.00;99438.50;6212711;23;20602;-82
2022/11/08 16:07:06;;;;;;;41.53;31.37;;;;;;;7.12;100.00;99439.53;6236428;23;20168;-82
2022/11/08 16:09:33;;;;;;;35.20;26.27;;;;;;;7.12;100.00;99444.03;6235712;23;20195;-82
2022/11/08 16:12:01;;;;;;;34.97;25.97;;;;;;;7.13;100.00;99445.69;6235824;23;20188;-81
2022/11/08 16:14:28;;;;;;;30.97;23.80;;;;;;;7.05;100.00;99444.81;6184538;23;20219;-81
2022/11/08 16:16:57;;;;;;;35.27;24.83;;;;;;;7.06;100.00;99450.97;6235230;23;20215;-82
2022/11/08 16:19:25;;;;;;;29.53;22.40;;;;;;;7.05;100.00;99444.00;6237814;23;20676;-82
2022/11/08 16:21:52;;;;;;;33.63;23.57;;;;;;;7.06;100.00;99435.00;6211767;23;20184;-82
2022/11/08 16:24:20;;;;;;;33.10;24.33;;;;;;;7.00;100.00;99439.28;6211984;23;20602;-82
2022/11/08 16:26:47;;;;;;;31.87;24.13;;;;;;;7.04;100.00;99447.72;6261549;23;20181;-82
2022/11/08 16:29:19;;;;;;;36.57;24.60;;;;;;;7.00;100.00;99452.59;6260642;23;20167;-82
2022/11/08 16:31:48;;;;;;;32.27;23.17;;;;;;;6.98;100.00;99444.00;6209592;23;20150;-82
2022/11/08 16:34:15;;;;;;;33.07;24.10;;;;;;;6.97;100.00;99446.84;6262382;23;20224;-82
2022/11/08 16:36:44;;;;;;;33.40;24.13;;;;;;;7.00;100.00;99460.59;6212203;23;20224;-83
2022/11/08 16:39:17;;;;;;;32.37;23.53;;;;;;;7.04;100.00;99461.84;6239700;23;20188;-82
2022/11/08 16:41:46;;;;;;;35.60;24.00;;;;;;;7.01;100.00;99459.56;6215452;23;20180;-82
2022/11/08 16:44:14;;;;;;;32.07;23.63;;;;;;;7.04;100.00;99464.53;6239812;23;20168;-82
2022/11/08 16:46:44;;;;;;;32.90;23.30;;;;;;;7.03;100.00;99457.53;6239597;23;20208;-81
2022/11/08 16:49:21;;;;;;;34.50;23.07;;;;;;;7.05;100.00;99457.31;6238146;23;20164;-82
2022/11/08 16:51:48;;;;;;;38.50;23.80;;;;;;;7.08;100.00;99455.09;6239133;23;20182;-82
2022/11/08 16:54:18;;;;;;;36.77;23.43;;;;;;;6.98;100.00;99459.97;6237319;23;20193;-82
2022/11/08 16:56:45;;;;;;;34.07;24.10;;;;;;;6.87;100.00;99455.22;6263917;23;20222;-81
2022/11/08 16:59:13;;;;;;;34.40;23.77;;;;;;;6.87;100.00;99454.41;6212982;23;20251;-82
2022/11/08 17:01:41;;;;;;;31.53;22.80;;;;;;;6.85;100.00;99456.47;6238051;23;20188;-82
2022/11/08 17:04:09;;;;;;;33.90;23.67;;;;;;;6.90;100.00;99456.69;6238299;23;20169;-82
2022/11/08 17:06:36;;;;;;;37.03;25.10;;;;;;;6.91;100.00;99458.28;6238038;23;20609;-81
2022/11/08 17:09:04;;;;;;;33.67;23.90;;;;;;;6.95;100.00;99460.38;6264067;23;20161;-82
2022/11/08 17:11:30;;;;;;;35.63;24.80;;;;;;;6.94;100.00;99456.09;6186049;23;20255;-82
2022/11/08 17:13:59;;;;;;;33.40;23.50;;;;;;;6.93;100.00;99456.28;6236382;23;20190;-82
2022/11/08 17:16:26;;;;;;;34.67;24.90;;;;;;;6.94;100.00;99452.59;6237348;23;20188;-82
2022/11/08 17:18:54;;;;;;;37.93;24.63;;;;;;;6.95;100.00;99456.91;6238948;23;20177;-82
2022/11/08 17:21:23;;;;;;;35.97;25.03;;;;;;;6.97;100.00;99460.16;6264491;23;20192;-82
2022/11/08 17:24:10;;;;;;;34.63;24.93;;;;;;;6.97;100.00;99458.34;6262699;23;20161;-82
2022/11/08 17:26:45;;;;;;;31.50;22.23;;;;;;;6.96;100.00;99455.84;6211321;23;20198;-82
2022/11/08 17:29:12;;;;;;;34.77;23.90;;;;;;;6.92;100.00;99454.63;6261725;23;20185;-82
2022/11/08 17:31:38;;;;;;;34.33;22.97;;;;;;;6.95;100.00;99446.25;6234903;23;20172;-82
2022/11/08 17:34:05;;;;;;;35.50;23.17;;;;;;;6.90;100.00;99454.03;6263407;23;20157;-82
2022/11/08 17:36:33;;;;;;;35.27;24.37;;;;;;;6.95;100.00;99452.38;6264899;23;20183;-82
2022/11/08 17:39:02;;;;;;;35.50;24.23;;;;;;;6.87;100.00;99452.56;6209374;23;20655;-82
2022/11/08 17:41:33;;;;;;;50.40;25.00;;;;;;;6.90;100.00;99448.69;6212710;23;20518;-82
2022/11/08 17:44:01;;;;;;;44.00;24.83;;;;;;;6.90;100.00;99449.53;6238468;23;20172;-82
2022/11/08 17:46:28;;;;;;;55.13;25.30;;;;;;;6.85;100.00;99454.63;6207461;23;20207;-82
2022/11/08 17:48:55;;;;;;;36.40;23.87;;;;;;;6.86;100.00;99452.78;6232299;23;20207;-82
2022/11/08 17:51:21;;;;;;;33.33;23.63;;;;;;;6.82;100.00;99455.00;6234826;23;20164;-81
2022/11/08 17:53:49;;;;;;;39.63;25.00;;;;;;;6.86;100.00;99458.09;6262405;23;20221;-82
2022/11/08 17:56:15;;;;;;;40.13;26.73;;;;;;;6.86;100.00;99453.56;6209856;23;20176;-82
2022/11/08 17:58:42;;;;;;;36.67;25.77;;;;;;;6.88;100.00;99453.38;6235578;23;20169;-82
2022/11/08 18:01:09;;;;;;;38.07;25.73;;;;;;;6.86;100.00;99445.59;6209534;23;20184;-82
2022/11/08 18:03:36;;;;;;;43.38;31.30;;;;;;;6.92;100.00;99449.28;6233958;23;20963;-82
2022/11/08 18:06:05;;;;;;;43.97;26.10;;;;;;;6.90;100.00;99452.19;6262276;23;20244;-82
2022/11/08 18:08:33;;;;;;;37.53;25.83;;;;;;;6.84;100.00;99450.31;6234662;23;20172;-81
2022/11/08 18:11:01;;;;;;;35.40;24.33;;;;;;;6.90;100.00;99451.34;6234623;23;20680;-82
2022/11/08 18:13:28;;;;;;;36.40;24.57;;;;;;;6.83;100.00;99453.16;6259579;23;20161;-81
2022/11/08 18:16:10;;;;;;;35.80;23.30;;;;;;;6.82;100.00;99440.84;6233014;23;20164;-82
2022/11/08 18:18:37;;;;;;;31.80;22.77;;;;;;;6.76;100.00;99429.19;6235072;23;20590;-82
2022/11/08 18:21:07;;;;;;;31.97;22.13;;;;;;;6.77;100.00;99445.97;6216404;23;20199;-83
2022/11/08 18:23:51;;;;;;;30.70;22.13;;;;;;;6.78;100.00;99437.78;6267144;23;20627;-83
2022/11/08 18:29:19;;;;;;;35.93;21.87;;;;;;;6.75;100.00;99450.69;6253823;23;20167;-83
2022/11/08 18:36:26;;;;;;;33.17;22.70;;;;;;;6.71;100.00;99430.81;6237184;23;20173;-83
2022/11/08 22:23:28;;;;;;;42.67;25.93;;;;;;;6.97;100.00;99484.16;6245344;22;20232;-82
2022/11/08 22:26:00;;;;;;;42.70;25.73;;;;;;;7.00;100.00;99487.22;6234749;23;20189;-83
2022/11/08 22:28:28;;;;;;;45.33;26.20;;;;;;;6.99;100.00;99488.28;6234670;23;20185;-83
2022/11/08 22:30:55;;;;;;;46.30;27.73;;;;;;;6.99;100.00;99479.44;6231619;23;20196;-82
2022/11/08 22:33:23;;;;;;;52.90;27.27;;;;;;;7.00;100.00;99486.41;6227746;23;20164;-82
2022/11/08 22:35:51;;;;;;;46.67;27.10;;;;;;;6.96;100.00;99480.66;6210171;23;20181;-83
2022/11/08 22:38:18;;;;;;;48.13;25.73;;;;;;;6.99;100.00;99479.44;6238963;23;20162;-83
2022/11/08 22:40:54;;;;;;;51.20;27.87;;;;;;;7.05;100.00;99487.44;6240901;23;20165;-83
2022/11/08 22:43:23;;;;;;;44.33;26.57;;;;;;;6.98;100.00;99483.97;6237996;23;20172;-83
2022/11/08 22:45:50;;;;;;;47.53;26.00;;;;;;;6.93;100.00;99482.91;6228527;23;20171;-82
2022/11/08 22:48:17;;;;;;;49.67;26.60;;;;;;;6.94;100.00;99476.56;6201486;23;20196;-82
2022/11/08 22:50:44;;;;;;;47.17;26.90;;;;;;;6.94;100.00;99487.22;6224988;23;20165;-82
2022/11/08 22:53:11;;;;;;;46.90;26.37;;;;;;;6.93;100.00;99477.56;6197119;23;20169;-82
2022/11/08 22:55:38;;;;;;;43.57;26.27;;;;;;;6.87;100.00;99473.88;6222271;23;20169;-81
2022/11/08 22:58:05;;;;;;;48.70;27.20;;;;;;;6.89;100.00;99473.69;6226303;23;20162;-82
2022/11/08 23:00:32;;;;;;;47.50;27.20;;;;;;;7.04;100.00;99479.69;6226932;23;20162;-82
2022/11/08 23:02:58;;;;;;;50.30;26.97;;;;;;;7.03;100.00;99476.19;6227670;23;20161;-82
2022/11/08 23:05:25;;;;;;;50.77;26.70;;;;;;;7.00;100.00;99473.91;6232485;23;20161;-83
2022/11/08 23:07:53;;;;;;;43.00;26.07;;;;;;;6.98;100.00;99475.13;6207155;23;20227;-81
2022/11/08 23:10:19;;;;;;;47.77;26.57;;;;;;;6.95;100.00;99471.03;6197354;23;20162;-82
2022/11/08 23:17:59;;;;;;;50.27;27.33;;;;;;;6.96;100.00;99482.50;6234031;23;20161;-82
2022/11/08 23:26:08;;;;;;;43.37;25.43;;;;;;;6.96;100.00;99485.16;6244612;23;20161;-83
2022/11/08 23:31:36;;;;;;;41.77;25.47;;;;;;;6.94;100.00;99476.56;6265032;23;20145;-83
2022/11/08 23:34:06;;;;;;;45.70;23.93;;;;;;;6.95;100.00;99471.03;6192099;23;20168;-83
2022/11/08 23:36:51;;;;;;;37.33;23.57;;;;;;;6.97;100.00;99473.50;6202511;23;20165;-83
2022/11/08 23:39:23;;;;;;;38.70;23.80;;;;;;;6.89;100.00;99484.34;6220240;23;20172;-83
2022/11/08 23:45:14;;;;;;;42.10;24.40;;;;;;;6.87;100.00;99487.19;6250934;23;20156;-83
2022/11/08 23:48:01;;;;;;;41.17;23.50;;;;;;;6.84;100.00;99474.28;6223292;23;20133;-83
2022/11/08 23:50:31;;;;;;;40.70;22.40;;;;;;;6.84;100.00;99482.25;6236840;23;20180;-82
2022/11/08 23:52:58;;;;;;;42.20;24.43;;;;;;;6.85;100.00;99475.94;6229646;23;20161;-82
2022/11/08 23:55:25;;;;;;;37.50;22.63;;;;;;;6.88;100.00;99478.19;6203618;23;20167;-81
2022/11/08 23:57:53;;;;;;;41.60;23.37;;;;;;;6.84;100.00;99489.44;6256909;23;20244;-82
